createdAt,value
2018-11-12T00:00:34.925Z,12.99
2018-11-12T00:03:03.881Z,12.96
2018-11-12T00:05:32.426Z,12.91
2018-11-12T00:08:01.635Z,12.77
2018-11-12T00:10:31.041Z,12.83
2018-11-12T00:12:59.589Z,12.81
2018-11-12T00:15:28.125Z,12.73
2018-11-12T00:17:56.614Z,12.65
2018-11-12T00:20:25.368Z,12.60
2018-11-12T00:22:54.213Z,12.66
2018-11-12T00:25:22.988Z,12.55
2018-11-12T00:27:51.481Z,12.79
2018-11-12T00:30:20.189Z,12.98
2018-11-12T00:32:48.976Z,13.01
2018-11-12T00:35:17.666Z,12.95
2018-11-12T00:37:46.424Z,12.89
2018-11-12T00:40:16.092Z,13.01
2018-11-12T00:42:44.892Z,13.12
2018-11-12T00:45:13.943Z,13.00
2018-11-12T00:47:42.630Z,12.95
2018-11-12T00:50:12.815Z,12.85
2018-11-12T00:52:42.486Z,12.98
2018-11-12T00:55:13.766Z,13.05
2018-11-12T00:57:42.617Z,13.09
2018-11-12T01:00:14.177Z,13.05
2018-11-12T01:02:50.252Z,13.05
2018-11-12T01:05:19.566Z,13.07
2018-11-12T01:07:48.417Z,13.12
2018-11-12T01:10:18.282Z,13.10
2018-11-12T01:12:47.477Z,13.02
2018-11-12T01:15:17.365Z,13.06
2018-11-12T01:17:46.903Z,13.04
2018-11-12T01:20:16.196Z,13.07
2018-11-12T01:22:46.386Z,13.06
2018-11-12T01:25:15.650Z,13.10
2018-11-12T01:27:44.512Z,13.15
2018-11-12T01:30:15.441Z,13.12
2018-11-12T01:32:44.440Z,13.13
2018-11-12T01:35:14.639Z,13.20
2018-11-12T01:37:44.007Z,13.12
2018-11-12T01:40:14.390Z,13.12
2018-11-12T01:42:43.873Z,13.10
2018-11-12T01:45:15.077Z,13.12
2018-11-12T01:47:50.716Z,13.01
2018-11-12T01:50:19.777Z,12.88
2018-11-12T01:52:49.603Z,12.83
2018-11-12T01:55:19.083Z,12.72
2018-11-12T01:57:48.518Z,12.75
2018-11-12T02:00:18.522Z,12.74
2018-11-12T02:02:48.579Z,12.72
2018-11-12T02:05:17.483Z,12.71
2018-11-12T02:07:46.240Z,12.72
2018-11-12T02:10:21.629Z,12.72
2018-11-12T02:12:50.568Z,12.68
2018-11-12T02:15:20.177Z,12.58
2018-11-12T02:17:49.425Z,12.61
2018-11-12T02:20:21.094Z,12.67
2018-11-12T02:22:50.283Z,12.56
2018-11-12T02:25:19.331Z,12.29
2018-11-12T02:27:47.797Z,12.08
2018-11-12T02:30:23.107Z,12.06
2018-11-12T02:32:51.736Z,12.07
2018-11-12T02:35:20.219Z,12.12
2018-11-12T02:37:49.117Z,12.01
2018-11-12T02:40:17.886Z,11.98
2018-11-12T02:42:47.145Z,11.90
2018-11-12T02:45:16.131Z,11.79
2018-11-12T02:47:44.861Z,11.81
2018-11-12T02:50:15.739Z,11.69
2018-11-12T02:52:44.791Z,11.68
2018-11-12T02:55:14.363Z,11.60
2018-11-12T02:57:44.621Z,11.52
2018-11-12T03:00:16.656Z,11.51
2018-11-12T03:02:45.760Z,11.42
2018-11-12T03:05:14.561Z,11.43
2018-11-12T03:07:43.650Z,11.31
2018-11-12T03:10:18.502Z,11.32
2018-11-12T03:12:50.529Z,11.36
2018-11-12T03:15:21.799Z,11.16
2018-11-12T03:17:53.346Z,11.27
2018-11-12T03:20:24.554Z,11.18
2018-11-12T03:22:55.882Z,11.07
2018-11-12T03:25:24.695Z,10.96
2018-11-12T03:27:55.677Z,11.01
2018-11-12T03:30:27.094Z,11.03
2018-11-12T03:32:57.787Z,10.94
2018-11-12T03:35:26.758Z,10.97
2018-11-12T03:37:56.097Z,10.89
2018-11-12T03:40:24.694Z,10.84
2018-11-12T03:42:53.309Z,10.82
2018-11-12T03:45:24.596Z,10.80
2018-11-12T03:47:54.163Z,10.64
2018-11-12T03:50:24.779Z,10.54
2018-11-12T03:52:53.248Z,10.58
2018-11-12T03:55:22.482Z,10.47
2018-11-12T03:57:51.946Z,10.69
2018-11-12T04:00:26.981Z,10.82
2018-11-12T04:02:55.951Z,11.02
2018-11-12T04:05:26.158Z,11.06
2018-11-12T04:07:56.314Z,11.17
2018-11-12T04:10:24.916Z,11.17
2018-11-12T04:12:53.718Z,11.07
2018-11-12T04:15:26.950Z,10.91
2018-11-12T04:17:55.424Z,10.88
2018-11-12T04:20:24.840Z,10.96
2018-11-12T04:23:01.099Z,11.11
2018-11-12T04:25:31.565Z,11.17
2018-11-12T04:28:00.275Z,11.36
2018-11-12T04:30:28.795Z,11.44
2018-11-12T04:32:57.234Z,11.30
2018-11-12T04:35:25.791Z,11.26
2018-11-12T04:37:54.270Z,11.01
2018-11-12T04:40:23.873Z,10.83
2018-11-12T04:42:52.764Z,10.73
2018-11-12T04:45:23.237Z,10.56
2018-11-12T04:47:53.650Z,10.60
2018-11-12T04:50:25.071Z,10.59
2018-11-12T04:52:54.372Z,10.43
2018-11-12T04:55:24.027Z,10.44
2018-11-12T04:57:53.150Z,10.38
2018-11-12T05:00:26.873Z,10.27
2018-11-12T05:02:55.511Z,10.17
2018-11-12T05:05:25.192Z,10.11
2018-11-12T05:07:53.686Z,10.40
2018-11-12T05:10:23.720Z,10.59
2018-11-12T05:12:53.942Z,10.59
2018-11-12T05:15:23.587Z,10.18
2018-11-12T05:17:52.403Z,10.08
2018-11-12T05:20:22.352Z,10.12
2018-11-12T05:22:51.263Z,10.11
2018-11-12T05:25:20.174Z,10.10
2018-11-12T05:27:48.694Z,10.01
2018-11-12T05:30:26.176Z,10.05
2018-11-12T05:32:55.716Z,10.14
2018-11-12T05:35:26.680Z,10.15
2018-11-12T05:37:56.140Z,10.13
2018-11-12T05:40:26.900Z,10.25
2018-11-12T05:42:56.228Z,10.29
2018-11-12T05:45:26.173Z,10.45
2018-11-12T05:47:54.925Z,10.42
2018-11-12T05:50:26.703Z,10.37
2018-11-12T05:52:57.193Z,10.36
2018-11-12T05:55:26.733Z,10.34
2018-11-12T05:57:56.636Z,10.34
2018-11-12T06:00:27.716Z,10.33
2018-11-12T06:02:56.213Z,10.28
2018-11-12T06:05:24.839Z,10.22
2018-11-12T06:07:53.661Z,10.21
2018-11-12T06:10:23.728Z,10.16
2018-11-12T06:12:52.387Z,10.13
2018-11-12T06:15:20.855Z,10.06
2018-11-12T06:17:50.960Z,10.04
2018-11-12T06:20:21.468Z,10.07
2018-11-12T06:22:50.093Z,10.13
2018-11-12T06:25:20.389Z,10.23
2018-11-12T06:27:49.068Z,10.33
2018-11-12T06:30:18.923Z,10.44
2018-11-12T06:32:47.737Z,10.41
2018-11-12T06:35:17.019Z,10.42
2018-11-12T06:37:46.480Z,10.44
2018-11-12T06:40:16.611Z,10.44
2018-11-12T06:42:45.179Z,10.47
2018-11-12T06:45:16.510Z,10.53
2018-11-12T06:47:46.068Z,10.64
2018-11-12T06:50:16.243Z,10.71
2018-11-12T06:52:45.309Z,10.88
2018-11-12T06:55:15.773Z,10.93
2018-11-12T06:57:44.738Z,10.94
2018-11-12T07:00:27.232Z,11.00
2018-11-12T07:02:55.923Z,11.06
2018-11-12T07:05:25.506Z,11.11
2018-11-12T07:07:54.465Z,11.17
2018-11-12T07:10:24.585Z,11.28
2018-11-12T07:13:09.859Z,11.35
2018-11-12T07:15:54.399Z,11.38
2018-11-12T07:18:28.785Z,11.36
2018-11-12T07:20:57.268Z,11.36
2018-11-12T07:23:25.669Z,11.43
2018-11-12T07:25:54.255Z,11.45
2018-11-12T07:28:23.464Z,11.55
2018-11-12T07:30:52.395Z,11.74
2018-11-12T07:33:21.101Z,11.79
2018-11-12T07:35:49.828Z,11.91
2018-11-12T07:38:18.638Z,12.03
2018-11-12T07:40:47.085Z,12.20
2018-11-12T07:43:15.533Z,12.43
2018-11-12T07:45:44.079Z,12.63
2018-11-12T07:48:13.022Z,12.75
2018-11-12T07:50:42.218Z,13.04
2018-11-12T07:53:11.304Z,13.28
2018-11-12T07:55:40.124Z,13.61
2018-11-12T07:58:08.662Z,13.66
2018-11-12T08:00:37.237Z,13.55
2018-11-12T08:03:07.217Z,13.76
2018-11-12T08:05:36.363Z,13.91
2018-11-12T08:08:05.842Z,14.10
2018-11-12T08:10:34.602Z,14.19
2018-11-12T08:13:03.239Z,14.64
2018-11-12T08:15:32.180Z,14.78
2018-11-12T08:18:00.793Z,14.86
2018-11-12T08:20:29.423Z,14.88
2018-11-12T08:22:57.904Z,14.82
2018-11-12T08:25:27.361Z,14.90
2018-11-12T08:27:55.919Z,15.15
2018-11-12T08:30:27.396Z,15.36
2018-11-12T08:32:57.737Z,15.35
2018-11-12T08:35:27.302Z,15.59
2018-11-12T08:37:56.518Z,15.66
2018-11-12T08:40:26.510Z,15.80
2018-11-12T08:42:55.640Z,15.83
2018-11-12T08:45:24.270Z,15.94
2018-11-12T08:47:54.360Z,15.98
2018-11-12T08:50:24.434Z,15.96
2018-11-12T08:52:54.107Z,16.14
2018-11-12T08:55:23.970Z,16.24
2018-11-12T08:57:54.286Z,16.39
2018-11-12T09:00:23.888Z,16.62
2018-11-12T09:02:53.095Z,16.66
2018-11-12T09:05:23.037Z,16.67
2018-11-12T09:07:54.279Z,16.85
2018-11-12T09:13:05.151Z,17.45
2018-11-12T09:15:33.798Z,17.48
2018-11-12T09:18:03.034Z,17.72
2018-11-12T09:20:31.878Z,18.03
2018-11-12T09:23:00.380Z,18.06
2018-11-12T09:25:29.805Z,18.12
2018-11-12T09:27:58.211Z,18.26
2018-11-12T09:30:29.532Z,18.34
2018-11-12T09:33:05.579Z,18.62
2018-11-12T09:35:34.117Z,18.57
2018-11-12T09:38:03.680Z,18.74
2018-11-12T09:40:35.145Z,18.84
2018-11-12T09:43:03.998Z,18.68
2018-11-12T09:45:33.057Z,18.73
2018-11-12T09:48:02.015Z,18.58
2018-11-12T09:50:30.836Z,18.29
2018-11-12T09:53:00.233Z,18.34
2018-11-12T09:55:30.065Z,18.27
2018-11-12T09:58:01.320Z,18.03
2018-11-12T10:00:30.063Z,18.45
2018-11-12T10:02:59.838Z,18.80
2018-11-12T10:05:29.575Z,18.93
2018-11-12T10:08:02.163Z,18.98
2018-11-12T10:10:49.670Z,19.09
2018-11-12T10:13:26.216Z,19.29
2018-11-12T10:15:53.185Z,19.21
2018-11-12T10:18:19.759Z,19.25
2018-11-12T10:20:48.307Z,19.25
2018-11-12T10:23:18.648Z,19.10
2018-11-12T10:25:47.183Z,18.94
2018-11-12T10:28:16.477Z,19.09
2018-11-12T10:30:44.946Z,18.95
2018-11-12T10:33:13.405Z,19.02
2018-11-12T10:35:41.947Z,18.89
2018-11-12T10:38:10.471Z,18.86
2018-11-12T10:40:39.227Z,18.68
2018-11-12T10:43:08.104Z,18.34
2018-11-12T10:45:37.715Z,18.29
2018-11-12T10:48:07.050Z,18.28
2018-11-12T10:50:35.950Z,18.43
2018-11-12T10:53:05.062Z,18.46
2018-11-12T10:55:34.490Z,18.40
2018-11-12T10:58:02.985Z,18.35
2018-11-12T11:00:39.130Z,18.36
2018-11-12T11:03:18.172Z,18.27
2018-11-12T11:05:48.291Z,18.23
2018-11-12T11:08:17.234Z,18.17
2018-11-12T11:10:46.691Z,18.15
2018-11-12T11:13:15.171Z,18.08
2018-11-12T11:15:43.752Z,18.29
2018-11-12T11:18:12.237Z,18.25
2018-11-12T11:20:40.737Z,18.27
2018-11-12T11:23:10.221Z,18.38
2018-11-12T11:25:38.692Z,18.29
2018-11-12T11:28:07.131Z,18.39
2018-11-12T11:30:35.465Z,18.36
2018-11-12T11:33:03.979Z,18.46
2018-11-12T11:35:32.617Z,18.43
2018-11-12T11:38:02.108Z,18.70
2018-11-12T11:40:31.033Z,18.70
2018-11-12T11:42:59.550Z,18.62
2018-11-12T11:45:28.253Z,18.62
2018-11-12T11:47:57.038Z,18.67
2018-11-12T11:50:26.632Z,18.60
2018-11-12T11:52:55.769Z,18.58
2018-11-12T11:55:24.959Z,18.57
2018-11-12T11:57:54.214Z,18.69
2018-11-12T12:00:24.661Z,18.62
2018-11-12T12:02:55.024Z,18.66
2018-11-12T12:05:24.310Z,18.58
2018-11-12T12:07:54.032Z,18.53
2018-11-12T12:10:22.453Z,18.45
2018-11-12T12:12:52.509Z,18.36
2018-11-12T12:15:23.000Z,18.38
2018-11-12T12:17:52.301Z,18.28
2018-11-12T12:20:22.798Z,18.37
2018-11-12T12:22:51.731Z,18.59
2018-11-12T12:25:21.078Z,18.83
2018-11-12T12:27:50.558Z,18.95
2018-11-12T12:30:24.035Z,19.08
2018-11-12T12:32:53.716Z,19.01
2018-11-12T12:35:22.525Z,18.83
2018-11-12T12:37:51.057Z,18.63
2018-11-12T12:40:21.093Z,18.54
2018-11-12T12:42:50.229Z,18.36
2018-11-12T12:45:21.187Z,18.56
2018-11-12T12:47:49.933Z,18.54
2018-11-12T12:50:19.184Z,18.43
2018-11-12T12:52:47.686Z,18.41
2018-11-12T12:55:17.174Z,18.63
2018-11-12T12:57:45.938Z,18.68
2018-11-12T13:00:17.331Z,18.78
2018-11-12T13:02:46.055Z,18.74
2018-11-12T13:05:14.445Z,18.63
2018-11-12T13:07:43.004Z,18.64
2018-11-12T13:10:12.841Z,18.63
2018-11-12T13:12:41.633Z,18.72
2018-11-12T13:15:13.752Z,18.92
2018-11-12T13:17:43.232Z,19.19
2018-11-12T13:20:14.682Z,19.22
2018-11-12T13:22:44.218Z,19.43
2018-11-12T13:25:12.743Z,19.56
2018-11-12T13:27:41.774Z,20.02
2018-11-12T13:30:14.293Z,22.00
2018-11-12T13:32:43.762Z,25.09
2018-11-12T13:35:13.970Z,28.55
2018-11-12T13:37:43.223Z,29.07
2018-11-12T13:40:15.409Z,29.01
2018-11-12T13:42:45.660Z,30.04
2018-11-12T13:45:14.239Z,30.75
2018-11-12T13:47:43.631Z,31.22
2018-11-12T13:50:16.246Z,29.48
2018-11-12T13:52:45.809Z,30.26
2018-11-12T13:55:15.312Z,31.30
2018-11-12T13:57:44.031Z,28.31
2018-11-12T14:00:17.728Z,27.66
2018-11-12T14:02:47.688Z,27.52
2018-11-12T14:05:18.156Z,25.93
2018-11-12T14:07:47.314Z,27.67
2018-11-12T14:10:17.509Z,30.02
2018-11-12T14:12:46.911Z,27.46
2018-11-12T14:15:18.013Z,26.32
2018-11-12T14:17:47.246Z,26.12
2018-11-12T14:20:16.237Z,27.54
2018-11-12T14:22:44.691Z,26.28
2018-11-12T14:25:15.578Z,25.89
2018-11-12T14:27:45.494Z,26.48
2018-11-12T14:30:15.601Z,27.19
2018-11-12T14:32:44.959Z,27.66
2018-11-12T14:35:14.241Z,26.65
2018-11-12T14:37:44.246Z,25.53
2018-11-12T14:40:14.411Z,24.90
2018-11-12T14:42:44.133Z,24.40
2018-11-12T14:45:14.955Z,23.91
2018-11-12T14:47:44.037Z,23.79
2018-11-12T14:52:48.008Z,23.09
2018-11-12T14:55:17.333Z,23.33
2018-11-12T14:57:46.149Z,22.39
2018-11-12T15:00:18.349Z,21.26
2018-11-12T15:02:46.982Z,20.71
2018-11-12T15:05:16.997Z,20.07
2018-11-12T15:07:52.375Z,19.78
2018-11-12T15:10:21.095Z,19.48
2018-11-12T15:12:50.136Z,19.09
2018-11-12T15:15:18.643Z,18.96
2018-11-12T15:17:47.228Z,18.75
2018-11-12T15:20:18.123Z,18.57
2018-11-12T15:22:47.095Z,18.41
2018-11-12T15:25:19.252Z,18.22
2018-11-12T15:27:47.928Z,18.04
2018-11-12T15:30:18.610Z,17.83
2018-11-12T15:32:48.559Z,17.75
2018-11-12T15:35:17.004Z,17.73
2018-11-12T15:37:46.326Z,17.61
2018-11-12T15:40:15.738Z,17.46
2018-11-12T15:42:44.684Z,17.20
2018-11-12T15:45:16.902Z,17.19
2018-11-12T15:47:46.403Z,17.15
2018-11-12T15:50:22.689Z,17.04
2018-11-12T15:52:51.600Z,16.94
2018-11-12T15:55:21.326Z,16.72
2018-11-12T15:57:50.296Z,16.54
2018-11-12T16:00:19.155Z,16.36
2018-11-12T16:02:48.048Z,16.62
2018-11-12T16:05:16.855Z,16.70
2018-11-12T16:07:53.307Z,16.93
2018-11-12T16:10:22.503Z,16.92
2018-11-12T16:12:51.407Z,17.01
2018-11-12T16:15:20.970Z,17.09
2018-11-12T16:17:49.850Z,16.94
2018-11-12T16:20:24.625Z,16.90
2018-11-12T16:22:55.554Z,16.88
2018-11-12T16:25:25.691Z,16.94
2018-11-12T16:27:54.819Z,16.92
2018-11-12T16:30:23.770Z,16.92
2018-11-12T16:32:52.469Z,16.93
2018-11-12T16:35:23.570Z,16.89
2018-11-12T16:37:54.134Z,16.84
2018-11-12T16:40:23.230Z,16.97
2018-11-12T16:42:51.771Z,16.97
2018-11-12T16:45:20.315Z,16.98
2018-11-12T16:47:49.205Z,16.96
2018-11-12T16:50:18.468Z,17.04
2018-11-12T16:52:48.041Z,16.92
2018-11-12T16:55:21.078Z,16.84
2018-11-12T16:57:50.012Z,16.80
2018-11-12T17:00:20.056Z,16.75
2018-11-12T17:02:50.237Z,16.70
2018-11-12T17:05:21.915Z,16.72
2018-11-12T17:07:50.696Z,16.72
2018-11-12T17:10:20.461Z,16.74
2018-11-12T17:12:49.949Z,16.73
2018-11-12T17:15:18.414Z,16.63
2018-11-12T17:17:47.844Z,16.67
2018-11-12T17:20:18.377Z,16.68
2018-11-12T17:22:46.894Z,16.66
2018-11-12T17:25:16.128Z,16.49
2018-11-12T17:27:46.558Z,16.33
2018-11-12T17:30:18.858Z,16.33
2018-11-12T17:32:49.147Z,16.42
2018-11-12T17:35:19.453Z,16.37
2018-11-12T17:37:48.396Z,16.27
2018-11-12T17:40:22.240Z,16.37
2018-11-12T17:42:51.715Z,16.23
2018-11-12T17:45:22.573Z,16.29
2018-11-12T17:47:53.245Z,16.22
2018-11-12T17:50:23.460Z,16.08
2018-11-12T17:52:54.384Z,16.04
2018-11-12T17:55:25.940Z,16.05
2018-11-12T17:57:55.362Z,16.03
2018-11-12T18:00:27.093Z,16.24
2018-11-12T18:02:56.516Z,16.16
2018-11-12T18:05:25.703Z,16.30
2018-11-12T18:07:54.738Z,16.29
2018-11-12T18:10:24.064Z,16.40
2018-11-12T18:12:54.565Z,16.22
2018-11-12T18:15:24.205Z,16.11
2018-11-12T18:17:53.796Z,16.04
2018-11-12T18:20:25.308Z,16.01
2018-11-12T18:22:55.322Z,15.94
2018-11-12T18:25:24.408Z,15.88
2018-11-12T18:27:54.894Z,15.98
2018-11-12T18:30:25.651Z,16.16
2018-11-12T18:32:56.527Z,16.20
2018-11-12T18:35:25.947Z,16.42
2018-11-12T18:37:56.055Z,16.43
2018-11-12T18:40:26.680Z,16.35
2018-11-12T18:43:11.422Z,16.23
2018-11-12T18:45:41.614Z,16.06
2018-11-12T18:48:10.985Z,16.00
2018-11-12T18:50:40.694Z,15.90
2018-11-12T18:53:09.312Z,15.84
2018-11-12T18:55:38.404Z,15.88
2018-11-12T18:58:08.698Z,15.81
2018-11-12T19:00:38.055Z,15.71
2018-11-12T19:03:07.361Z,15.70
2018-11-12T19:05:35.862Z,15.77
2018-11-12T19:08:05.358Z,15.60
2018-11-12T19:10:34.885Z,15.53
2018-11-12T19:13:03.373Z,15.51
2018-11-12T19:15:36.557Z,15.50
2018-11-12T19:18:09.106Z,15.40
2018-11-12T19:20:38.225Z,15.40
2018-11-12T19:23:07.203Z,15.43
2018-11-12T19:25:36.537Z,15.49
2018-11-12T19:28:05.205Z,15.72
2018-11-12T19:30:33.810Z,15.72
2018-11-12T19:33:03.301Z,15.67
2018-11-12T19:35:32.635Z,15.60
2018-11-12T19:38:02.054Z,15.55
2018-11-12T19:40:31.969Z,15.34
2018-11-12T19:43:01.773Z,15.10
2018-11-12T19:45:30.349Z,14.93
2018-11-12T19:47:59.593Z,14.77
2018-11-12T19:50:29.327Z,14.69
2018-11-12T19:52:59.002Z,14.62
2018-11-12T19:55:27.768Z,14.64
2018-11-12T19:57:56.950Z,14.62
2018-11-12T20:00:27.375Z,14.62
2018-11-12T20:02:57.266Z,14.49
2018-11-12T20:05:27.129Z,14.35
2018-11-12T20:07:57.235Z,14.26
2018-11-12T20:10:26.581Z,14.09
2018-11-12T20:12:54.985Z,14.08
2018-11-12T20:15:24.699Z,13.95
2018-11-12T20:17:55.198Z,13.86
2018-11-12T20:20:28.123Z,13.78
2018-11-12T20:22:56.584Z,13.76
2018-11-12T20:25:26.588Z,13.73
2018-11-12T20:27:55.885Z,13.67
2018-11-12T20:30:31.764Z,13.64
2018-11-12T20:33:01.407Z,13.60
2018-11-12T20:35:30.720Z,13.51
2018-11-12T20:38:00.291Z,13.45
2018-11-12T20:40:28.872Z,13.39
2018-11-12T20:42:57.951Z,13.32
2018-11-12T20:45:26.729Z,13.40
2018-11-12T20:47:56.318Z,13.41
2018-11-12T20:50:26.243Z,13.47
2018-11-12T20:52:56.286Z,13.44
2018-11-12T20:55:25.153Z,13.44
2018-11-12T20:57:53.941Z,13.50
2018-11-12T21:00:25.710Z,13.48
2018-11-12T21:02:54.868Z,13.55
2018-11-12T21:05:24.839Z,13.54
2018-11-12T21:07:53.291Z,13.51
2018-11-12T21:10:22.101Z,13.40
2018-11-12T21:12:50.859Z,13.36
2018-11-12T21:15:21.360Z,13.39
2018-11-12T21:17:50.556Z,13.54
2018-11-12T21:20:26.500Z,13.54
2018-11-12T21:22:55.717Z,13.63
2018-11-12T21:25:26.267Z,13.68
2018-11-12T21:27:55.356Z,13.72
2018-11-12T21:30:25.240Z,13.69
2018-11-12T21:32:54.527Z,13.63
2018-11-12T21:35:23.684Z,13.65
2018-11-12T21:37:54.056Z,13.69
2018-11-12T21:40:27.249Z,13.65
2018-11-12T21:42:56.080Z,13.63
2018-11-12T21:45:25.927Z,13.70
2018-11-12T21:47:54.616Z,13.73
2018-11-12T21:50:24.251Z,13.76
2018-11-12T21:52:54.407Z,13.80
2018-11-12T21:55:23.462Z,13.87
2018-11-12T21:57:51.959Z,13.92
2018-11-12T22:00:22.813Z,13.93
2018-11-12T22:02:56.890Z,13.93
2018-11-12T22:05:26.610Z,13.95
2018-11-12T22:07:55.479Z,13.94
2018-11-12T22:10:23.979Z,14.00
2018-11-12T22:12:53.070Z,13.93
2018-11-12T22:15:21.691Z,13.91
2018-11-12T22:17:50.161Z,13.88
2018-11-12T22:20:23.365Z,13.87
2018-11-12T22:22:53.576Z,13.87
2018-11-12T22:25:24.450Z,13.89
2018-11-12T22:27:54.196Z,13.92
2018-11-12T22:30:24.411Z,13.96
2018-11-12T22:32:54.159Z,13.99
2018-11-12T22:35:22.667Z,13.96
2018-11-12T22:37:51.220Z,13.95
2018-11-12T22:40:20.545Z,13.92
2018-11-12T22:42:50.768Z,13.90
2018-11-12T22:45:21.473Z,13.84
2018-11-12T22:47:50.663Z,13.83
2018-11-12T22:50:19.623Z,13.77
2018-11-12T22:52:48.849Z,13.81
2018-11-12T22:55:18.444Z,13.82
2018-11-12T22:57:47.253Z,13.81
2018-11-12T23:00:26.019Z,13.79
2018-11-12T23:02:56.269Z,13.75
2018-11-12T23:05:24.933Z,13.72
2018-11-12T23:07:54.200Z,13.71
2018-11-12T23:10:23.114Z,13.73
2018-11-12T23:12:52.065Z,13.86
2018-11-12T23:15:21.119Z,13.99
2018-11-12T23:17:49.675Z,14.14
2018-11-12T23:20:20.507Z,14.18
2018-11-12T23:22:49.389Z,14.11
2018-11-12T23:25:18.691Z,14.11
2018-11-12T23:27:47.956Z,14.05
2018-11-12T23:30:18.076Z,14.01
2018-11-12T23:32:47.233Z,14.11
2018-11-12T23:35:17.834Z,14.16
2018-11-12T23:37:47.536Z,14.25
2018-11-12T23:40:16.447Z,14.28
2018-11-12T23:42:46.260Z,14.38
2018-11-12T23:45:16.065Z,14.37
2018-11-12T23:47:45.803Z,14.49
2018-11-12T23:50:18.006Z,14.65
2018-11-12T23:52:47.788Z,14.60
2018-11-12T23:55:18.314Z,14.70
2018-11-12T23:57:48.323Z,14.72
